Terminal Aerodrome Forecast
Issued by NWS

Home | Current Version | Previous Version | Text Only | Print | Product List | Glossary On
Versions: 1 2 3 4 5 6 7 8 9 10 11 12 13 14 15 16 17 18 19 20 21 22 23 24 25 26 27 28 29 30 31
000
FTUS42 KJAX 130500
TAFVQQ
TAF
KVQQ 130525Z 1306/1406 00000KT 2SM BR BKN250
      TEMPO 1306/1309 1SM BR SCT002
     FM130900 00000KT 1SM BR SCT002
      TEMPO 1309/1311 1/2SM FG VV002
     FM131130 21003KT P6SM SCT035 SCT250
     FM131700 14006KT P6SM VCTS BKN035CB BKN250 PROB30 1319/1323 4SM
      TSRA
     FM140200 15005KT P6SM SCT250
     FM140500 00000KT 4SM BR SCT250=

USA.gov is the U.S. government's official web portal to all federal, state and local government web resources and services.